Latest Coastal Weather Observations for Lihou Reef Lighthouse

IDQ60701

Issued at 5:31 am EST Thursday 17 August 2017 (issued every 10 minutes, with the page automatically refreshed every 10 minutes)

About coastal observations | Map of coastal stations | Coastal observations for QLD | Marine services | Other Formats
Station Details ID: 200880 Name: LIHOU REEF LIGHTHOUSE Lat: -17.13 Lon: 152.15 Height: 0.0 m
Data from the previous 72 hours. | See also: Recent months at Lihou Reef Lighthouse
Date/Time
EST
Temp
°C
Wind Pressure Rain since
9am
mm
Weather Cloud Vis
km
Sea
Height
m
Swell
Dir  Spd
kts
Gust
kts
hPa Trend Height
m
Period
s
Dir
17/05:30am 23.8 E 11 15 1014.3 - - - - - - - - -
17/05:00am 23.7 ESE 12 14 1014.1 - - - - - - - - -
17/04:30am 23.6 ESE 13 15 1014.0 - - - - - - - - -
17/04:00am 23.7 SE 11 13 1013.7 - - - - - - - - -
17/03:30am 23.7 ESE 12 15 1013.7 - - - - - - - - -
17/03:00am 23.5 ESE 13 15 1013.8 - - - - - - - - -
17/02:30am 23.7 ESE 11 13 1014.1 - - - - - - - - -
17/02:00am 23.7 ESE 14 17 1014.2 - - - - - - - - -
17/01:30am 23.9 SE 13 16 1014.5 - - - - - - - - -
17/01:00am 23.6 SE 14 17 1014.7 - - - - - - - - -
17/12:30am 23.9 SE 14 18 1014.8 - - - - - - - - -
17/12:00am 23.6 ESE 14 16 1015.0 - - - - - - - - -
 
Date/Time
EST
Temp
°C
Wind Pressure Rain since
9am
mm
Weather Cloud Vis
km
Sea
Height
m
Swell
Dir  Spd
kts
Gust
kts
hPa Trend Height
m
Period
s
Dir
16/11:30pm 23.7 ESE 14 17 1015.0 - - - - - - - - -
16/11:00pm 23.6 ESE 15 18 1014.9 - - - - - - - - -
16/10:30pm 23.8 ESE 14 18 1014.8 - - - - - - - - -
16/10:00pm 23.9 SE 14 17 1014.8 - - - - - - - - -
16/09:30pm 23.9 SE 13 15 1014.9 - - - - - - - - -
16/09:00pm 23.7 ESE 16 18 1014.9 - - - - - - - - -
16/08:30pm 23.9 ESE 14 16 1014.7 - - - - - - - - -
16/08:00pm 23.9 SE 15 17 1014.6 - - - - - - - - -
16/07:30pm 23.9 SE 15 18 1014.5 - - - - - - - - -
16/07:00pm 23.8 SE 15 17 1014.0 - - - - - - - - -
16/06:30pm 23.8 SE 15 19 1013.7 - - - - - - - - -
16/06:00pm 23.9 SE 14 16 1013.5 - - - - - - - - -
16/05:30pm 24.0 ESE 12 15 1013.4 - - - - - - - - -
16/05:00pm 23.9 ESE 11 14 1013.3 - - - - - - - - -
16/04:30pm 24.1 ESE 13 15 1013.2 - - - - - - - - -
16/04:00pm 24.3 ESE 12 15 1013.0 - - - - - - - - -
16/03:30pm 24.2 ESE 13 16 1012.8 - - - - - - - - -
16/03:00pm 24.4 ESE 13 15 1012.8 - - - - - - - - -
16/02:30pm 24.4 ESE 13 15 1012.8 - - - - - - - - -
16/02:00pm 24.3 ESE 13 15 1013.1 - - - - - - - - -
16/01:30pm 24.3 ESE 13 16 1013.4 - - - - - - - - -
16/01:00pm 24.2 ESE 11 14 1013.9 - - - - - - - - -
16/12:30pm 24.4 ESE 13 16 1014.1 - - - - - - - - -
16/12:00pm 24.3 ESE 12 15 1014.7 - - - - - - - - -
16/11:30am 24.3 ESE 13 15 1015.2 - - - - - - - - -
16/11:00am 24.4 ESE 14 16 1015.5 - - - - - - - - -
16/10:30am 24.3 ESE 14 16 1015.7 - - - - - - - - -
16/10:00am 24.4 ESE 14 16 1016.1 - - - - - - - - -
16/09:30am 24.2 ESE 14 17 1016.1 - - - - - - - - -
16/09:00am 24.3 ESE 15 18 1016.0 - - - - - - - - -
16/08:30am 24.2 ESE 15 19 1015.8 - - - - - - - - -
16/08:00am 23.9 ESE 15 18 1015.8 - - - - - - - - -
16/07:30am 24.1 ESE 14 19 1015.5 - - - - - - - - -
16/07:00am 23.9 ESE 13 16 1015.4 - - - - - - - - -
16/06:30am 23.7 ESE 16 20 1015.1 - - - - - - - - -
16/06:00am 23.4 ESE 15 18 1014.8 - - - - - - - - -
16/05:30am 23.4 ESE 14 19 1014.4 - - - - - - - - -
16/05:00am 23.3 ESE 15 18 1014.0 - - - - - - - - -
16/04:30am 23.4 ESE 15 18 1014.0 - - - - - - - - -
16/04:00am 23.3 ESE 15 17 1014.0 - - - - - - - - -
16/03:30am 23.3 ESE 14 18 1014.0 - - - - - - - - -
16/03:00am 23.4 ESE 14 17 1014.1 - - - - - - - - -
16/02:30am 23.3 ESE 14 17 1014.2 - - - - - - - - -
16/02:00am 23.2 ESE 15 18 1014.2 - - - - - - - - -
16/01:30am 23.1 ESE 15 17 1014.6 - - - - - - - - -
16/01:00am 23.4 ESE 15 18 1015.0 - - - - - - - - -
16/12:30am 23.3 ESE 16 18 1015.2 - - - - - - - - -
16/12:00am 23.3 ESE 15 19 1015.3 - - - - - - - - -
 
Date/Time
EST
Temp
°C
Wind Pressure Rain since
9am
mm
Weather Cloud Vis
km
Sea
Height
m
Swell
Dir  Spd
kts
Gust
kts
hPa Trend Height
m
Period
s
Dir
15/11:30pm 23.2 ESE 17 21 1015.5 - - - - - - - - -
15/11:00pm 23.1 ESE 16 20 1015.5 - - - - - - - - -
15/10:30pm 23.2 ESE 16 19 1015.7 - - - - - - - - -
15/10:00pm 23.3 ESE 17 20 1015.8 - - - - - - - - -
15/09:30pm 23.3 ESE 17 21 1015.9 - - - - - - - - -
15/09:00pm 23.4 SE 18 21 1015.9 - - - - - - - - -
15/08:30pm 23.4 SE 18 21 1015.7 - - - - - - - - -
15/08:00pm 23.5 SE 17 19 1015.8 - - - - - - - - -
15/07:30pm 23.4 SE 16 20 1015.6 - - - - - - - - -
15/07:00pm 23.5 SE 16 20 1015.4 - - - - - - - - -
15/06:30pm 23.4 SE 16 19 1015.1 - - - - - - - - -
15/06:00pm 23.4 SE 16 19 1014.8 - - - - - - - - -
15/05:30pm 23.4 SE 14 17 1015.1 - - - - - - - - -
15/05:00pm 23.4 SE 14 17 1014.9 - - - - - - - - -
15/04:30pm 23.7 SE 14 16 1014.8 - - - - - - - - -
15/04:00pm 23.7 ESE 14 17 1014.8 - - - - - - - - -
15/03:30pm 23.7 SE 15 17 1014.7 - - - - - - - - -
15/03:00pm 23.8 ESE 14 17 1014.7 - - - - - - - - -
15/02:30pm 23.7 SE 15 17 1014.8 - - - - - - - - -
15/02:00pm 23.6 SE 14 16 1015.0 - - - - - - - - -
15/01:30pm 23.8 SE 13 16 1015.3 - - - - - - - - -
15/01:00pm 23.7 SE 14 16 1015.7 - - - - - - - - -
15/12:30pm 23.6 SE 14 17 1016.2 - - - - - - - - -
15/12:00pm 23.8 SE 15 17 1016.5 - - - - - - - - -
15/11:30am 23.7 SE 13 16 1016.9 - - - - - - - - -
15/11:00am 23.8 SE 13 15 1017.2 - - - - - - - - -
15/10:30am 23.8 SE 12 15 1017.4 - - - - - - - - -
15/10:00am 23.8 ESE 13 16 1017.8 - - - - - - - - -
15/09:30am 23.8 SE 12 14 1018.2 - - - - - - - - -
15/09:00am 23.8 SE 13 15 1018.3 - - - - - - - - -
15/08:30am 23.9 SE 12 15 1018.1 - - - - - - - - -
15/08:00am 23.5 SE 12 15 1017.8 - - - - - - - - -
15/07:30am 23.5 SE 12 15 1017.7 - - - - - - - - -
15/07:00am 23.4 SE 12 14 1017.3 - - - - - - - - -
15/06:30am 23.2 SE 12 14 1016.9 - - - - - - - - -
15/06:00am 22.9 SE 11 14 1016.7 - - - - - - - - -
15/05:30am 23.1 ESE 10 13 1016.4 - - - - - - - - -
15/05:00am 23.0 ESE 11 13 1016.3 - - - - - - - - -
15/04:30am 23.0 ESE 14 16 1016.1 - - - - - - - - -
15/04:00am 23.3 ESE 12 15 1016.0 - - - - - - - - -
15/03:30am 23.0 ESE 12 14 1015.9 - - - - - - - - -
15/03:00am 23.2 ESE 14 16 1016.0 - - - - - - - - -
15/02:30am 23.1 ESE 13 15 1016.2 - - - - - - - - -
15/02:00am 23.3 ESE 12 14 1016.4 - - - - - - - - -
15/01:30am 23.2 ESE 13 16 1016.6 - - - - - - - - -
15/01:00am 23.3 ESE 14 16 1016.8 - - - - - - - - -
15/12:30am 23.5 SE 13 15 1016.9 - - - - - - - - -
15/12:00am 23.3 ESE 13 15 1017.2 - - - - - - - - -
 
Date/Time
EST
Temp
°C
Wind Pressure Rain since
9am
mm
Weather Cloud Vis
km
Sea
Height
m
Swell
Dir  Spd
kts
Gust
kts
hPa Trend Height
m
Period
s
Dir
14/11:30pm 23.4 ESE 13 16 1017.4 - - - - - - - - -
14/11:00pm 23.3 ESE 13 15 1017.2 - - - - - - - - -
14/10:30pm 23.6 ESE 13 15 1017.3 - - - - - - - - -
14/10:00pm 23.5 ESE 14 17 1017.5 - - - - - - - - -
14/09:30pm 23.4 ESE 13 16 1017.3 - - - - - - - - -
14/09:00pm 23.7 ESE 13 16 1017.2 - - - - - - - - -
14/08:30pm 23.7 SE 12 15 1017.1 - - - - - - - - -
14/08:00pm 23.6 ESE 13 15 1016.8 - - - - - - - - -
14/07:30pm 23.7 ESE 14 16 1016.7 - - - - - - - - -
14/07:00pm 23.5 SE 14 17 1016.4 - - - - - - - - -
14/06:30pm 23.5 SE 15 17 1016.2 - - - - - - - - -
14/06:00pm 23.7 SE 15 17 1015.9 - - - - - - - - -
14/05:30pm 23.8 SE 15 17 1015.7 - - - - - - - - -
14/05:00pm 23.8 SE 15 18 1015.5 - - - - - - - - -
14/04:30pm 23.8 SE 16 18 1015.1 - - - - - - - - -
14/04:00pm 23.6 SE 16 19 1014.7 - - - - - - - - -
14/03:30pm 24.0 SE 17 20 1014.6 - - - - - - - - -
14/03:00pm 23.9 SE 16 19 1014.6 - - - - - - - - -
14/02:30pm 23.8 SE 16 18 1014.6 - - - - - - - - -
14/02:00pm 23.7 SE 17 19 1014.7 - - - - - - - - -
14/01:30pm 23.9 SE 16 18 1015.1 - - - - - - - - -
14/01:00pm 23.8 SE 15 19 1015.5 - - - - - - - - -
14/12:30pm 24.0 SE 15 17 1016.0 - - - - - - - - -
14/12:00pm 23.7 SE 15 18 1016.4 - - - - - - - - -
14/11:30am 23.7 SE 16 19 1016.9 - - - - - - - - -
14/11:00am 23.8 SE 16 18 1017.2 - - - - - - - - -
14/10:30am 23.7 SE 16 19 1017.5 - - - - - - - - -
14/10:00am 23.8 SE 17 19 1017.8 - - - - - - - - -
14/09:30am 23.8 SE 16 19 1018.1 - - - - - - - - -
14/09:00am 23.9 SE 16 19 1018.2 - - - - - - - - -
14/08:30am 24.0 SE 15 18 1018.2 - - - - - - - - -
14/08:00am 23.7 SE 15 18 1018.0 - - - - - - - - -
14/07:30am 23.7 SE 15 17 1017.9 - - - - - - - - -
14/07:00am 23.6 SE 15 17 1017.7 - - - - - - - - -
14/06:30am 23.6 SE 15 17 1017.2 - - - - - - - - -
14/06:00am 23.4 SE 15 17 1016.9 - - - - - - - - -

Other Formats:

Comma delimited format used in spreadsheet applications
http://www.bom.gov.au/fwo/IDQ60701/IDQ60701.94293.axf

JavaScript Object Notation format (JSON) in row-major order
http://www.bom.gov.au/fwo/IDQ60701/IDQ60701.94293.json